Time;durP1;ratioP1;P1;durP2;ratioP2;P2;SDS_P1;SDS_P2;PMS_P1;PMS_P2;Temp;Humidity;BMP_temperature;BMP_pressure;BME280_temperature;BME280_humidity;BME280_pressure;Samples;Min_cycle;Max_cycle;Signal;HPM_P1;HPM_P2
2023/04/03 00:00:07;;;;;;;5.85;3.90;;;;;;;1.55;100.00;96400.84;1018629;29;20418;-65
2023/04/03 00:00:38;;;;;;;6.60;4.24;;;;;;;1.54;100.00;96405.22;1014826;29;20543;-69
2023/04/03 00:01:09;;;;;;;4.60;3.63;;;;;;;1.52;100.00;96396.81;1010393;29;20029;-65
2023/04/03 00:01:40;;;;;;;5.25;4.07;;;;;;;1.55;100.00;96396.44;1010618;29;20116;-67
2023/04/03 00:02:10;;;;;;;6.38;4.20;;;;;;;1.58;100.00;96395.28;1010939;29;20530;-65
2023/04/03 00:02:41;;;;;;;5.50;4.25;;;;;;;1.54;100.00;96391.44;1014700;29;20268;-64
2023/04/03 00:03:11;;;;;;;5.78;4.22;;;;;;;1.57;100.00;96398.84;1015522;29;20450;-70
2023/04/03 00:03:42;;;;;;;5.50;4.10;;;;;;;1.53;100.00;96395.84;1018389;29;20052;-67
2023/04/03 00:04:12;;;;;;;5.30;3.95;;;;;;;1.57;100.00;96394.47;1022405;29;20031;-69
2023/04/03 00:04:43;;;;;;;4.63;3.80;;;;;;;1.56;100.00;96397.25;1023662;28;20463;-65
2023/04/03 00:05:13;;;;;;;5.50;4.13;;;;;;;1.63;100.00;96398.88;1022383;29;20308;-67
2023/04/03 00:05:44;;;;;;;6.70;4.18;;;;;;;1.54;100.00;96376.75;1019876;29;20283;-65
2023/04/03 00:06:14;;;;;;;6.90;4.32;;;;;;;1.59;100.00;96395.06;1014442;29;20024;-66
2023/04/03 00:06:45;;;;;;;6.35;4.10;;;;;;;1.53;100.00;96395.03;1018514;29;20050;-66
2023/04/03 00:07:15;;;;;;;5.75;3.95;;;;;;;1.48;100.00;96395.63;1014524;29;20028;-66
2023/04/03 00:07:46;;;;;;;4.80;3.65;;;;;;;1.46;100.00;96395.00;1014699;29;20020;-65
2023/04/03 00:08:16;;;;;;;6.95;3.75;;;;;;;1.44;100.00;96394.38;1022140;29;20434;-65
2023/04/03 00:08:47;;;;;;;5.50;4.13;;;;;;;1.42;100.00;96401.53;1018797;29;20020;-65
2023/04/03 00:09:17;;;;;;;5.90;3.92;;;;;;;1.41;100.00;96399.94;1018472;29;20018;-67
2023/04/03 00:09:48;;;;;;;4.97;3.90;;;;;;;1.39;100.00;96399.31;1017982;29;20067;-65
2023/04/03 00:10:21;;;;;;;5.95;3.97;;;;;;;1.40;100.00;96387.97;1018492;29;20026;-64
2023/04/03 00:10:52;;;;;;;6.04;3.86;;;;;;;1.41;100.00;96387.00;1018516;29;20024;-67
2023/04/03 00:11:22;;;;;;;4.90;4.05;;;;;;;1.38;100.00;96400.31;1014676;29;20375;-67
2023/04/03 00:11:53;;;;;;;7.03;4.07;;;;;;;1.39;100.00;96391.56;1013247;29;20020;-66
2023/04/03 00:12:23;;;;;;;5.88;4.53;;;;;;;1.44;100.00;96396.94;1014531;29;20042;-67
2023/04/03 00:12:54;;;;;;;4.90;3.58;;;;;;;1.39;100.00;96400.13;1010833;29;20033;-69
2023/04/03 00:13:24;;;;;;;7.05;4.20;;;;;;;1.42;100.00;96391.19;1014215;29;20608;-66
2023/04/03 00:13:55;;;;;;;4.82;4.05;;;;;;;1.42;100.00;96401.53;1012772;29;20027;-70
2023/04/03 00:14:25;;;;;;;6.85;4.15;;;;;;;1.43;100.00;96397.94;1011037;29;20025;-67
2023/04/03 00:14:56;;;;;;;9.27;4.80;;;;;;;1.44;100.00;96391.78;1010080;29;20024;-65
2023/04/03 00:15:26;;;;;;;5.03;3.90;;;;;;;1.48;100.00;96393.03;1007022;29;20036;-64
2023/04/03 00:15:57;;;;;;;5.47;4.35;;;;;;;1.48;100.00;96389.66;1010774;29;20487;-65
2023/04/03 00:16:28;;;;;;;4.97;3.85;;;;;;;1.46;100.00;96391.59;1014589;29;20016;-64
2023/04/03 00:16:58;;;;;;;8.32;4.18;;;;;;;1.48;100.00;96400.78;1017953;29;20031;-66
2023/04/03 00:17:29;;;;;;;4.90;3.95;;;;;;;1.48;100.00;96395.63;1018465;29;20047;-65
2023/04/03 00:17:59;;;;;;;5.88;4.22;;;;;;;1.41;100.00;96392.97;1018233;29;20019;-66
2023/04/03 00:18:30;;;;;;;5.45;4.20;;;;;;;1.45;100.00;96398.56;1021670;29;20019;-66
2023/04/03 00:19:00;;;;;;;4.85;3.72;;;;;;;1.44;100.00;96399.53;1022132;29;20079;-66
2023/04/03 00:19:31;;;;;;;4.93;3.63;;;;;;;1.42;100.00;96389.41;1019362;29;20047;-73
2023/04/03 00:20:02;;;;;;;6.05;4.32;;;;;;;1.42;100.00;96391.19;1018665;29;20024;-66
2023/04/03 00:20:33;;;;;;;5.78;4.22;;;;;;;1.44;100.00;96393.56;1019159;29;20084;-72
2023/04/03 00:21:04;;;;;;;5.20;3.90;;;;;;;1.44;100.00;96391.78;1018133;29;20256;-71
2023/04/03 00:21:35;;;;;;;5.47;4.15;;;;;;;1.43;100.00;96392.78;1014067;29;20008;-71
2023/04/03 00:22:06;;;;;;;5.63;4.30;;;;;;;1.39;100.00;96392.34;1018609;29;20276;-68
2023/04/03 00:22:36;;;;;;;7.55;4.20;;;;;;;1.40;100.00;96393.16;1022620;29;20267;-69
2023/04/03 00:23:06;;;;;;;9.35;4.47;;;;;;;1.41;100.00;96392.97;1025872;28;20023;-68
2023/04/03 00:23:37;;;;;;;4.70;3.72;;;;;;;1.39;100.00;96388.97;1030012;28;20038;-71
2023/04/03 00:24:07;;;;;;;5.63;4.50;;;;;;;1.39;100.00;96392.34;1029752;28;20027;-68
2023/04/03 00:24:38;;;;;;;9.85;4.63;;;;;;;1.38;100.00;96385.59;1029693;28;20037;-68
2023/04/03 00:25:09;;;;;;;5.40;4.20;;;;;;;1.37;100.00;96386.56;1029790;28;20239;-70
2023/04/03 00:25:39;;;;;;;6.20;3.90;;;;;;;1.34;100.00;96391.31;1030074;28;20018;-70
2023/04/03 00:26:10;;;;;;;7.03;4.60;;;;;;;1.34;100.00;96378.38;1029816;28;20027;-67
2023/04/03 00:26:40;;;;;;;4.97;3.90;;;;;;;1.34;100.00;96399.06;1029380;28;20122;-70
2023/04/03 00:27:11;;;;;;;7.15;4.07;;;;;;;1.35;100.00;96391.16;1025766;29;20090;-71
2023/04/03 00:27:41;;;;;;;7.43;4.78;;;;;;;1.27;100.00;96372.38;1026365;29;20023;-68
2023/04/03 00:28:12;;;;;;;8.65;4.85;;;;;;;1.38;100.00;96384.81;1025979;29;20505;-70
2023/04/03 00:28:42;;;;;;;7.75;4.13;;;;;;;1.34;100.00;96380.97;1022084;29;20036;-70
2023/04/03 00:29:13;;;;;;;7.90;4.50;;;;;;;1.35;100.00;96391.16;1016008;29;20493;-65
2023/04/03 00:29:43;;;;;;;5.55;3.90;;;;;;;1.34;100.00;96378.38;1010586;29;20024;-67
2023/04/03 00:30:15;;;;;;;6.38;4.15;;;;;;;1.34;100.00;96386.97;1010746;29;20056;-64
2023/04/03 00:30:45;;;;;;;7.65;4.20;;;;;;;1.28;100.00;96387.72;1010751;29;20523;-67
2023/04/03 00:31:16;;;;;;;5.57;3.75;;;;;;;1.29;100.00;96385.94;1010454;29;20273;-64
2023/04/03 00:31:46;;;;;;;5.70;3.78;;;;;;;1.36;100.00;96384.19;1006640;29;20233;-68
2023/04/03 00:32:17;;;;;;;6.63;3.63;;;;;;;1.35;100.00;96395.53;1008205;29;20104;-66
2023/04/03 00:32:50;;;;;;;5.55;3.83;;;;;;;1.37;100.00;96396.91;1018454;29;20063;-65
2023/04/03 00:33:21;;;;;;;5.18;3.78;;;;;;;1.36;100.00;96387.56;1023043;28;20055;-66
2023/04/03 00:33:52;;;;;;;5.28;3.40;;;;;;;1.41;100.00;96390.41;1022392;29;20255;-67
2023/04/03 00:34:22;;;;;;;5.95;3.70;;;;;;;1.38;100.00;96392.56;1021833;29;20019;-67
2023/04/03 00:34:52;;;;;;;4.10;3.58;;;;;;;1.30;100.00;96390.09;1021787;29;20607;-68
2023/04/03 00:35:23;;;;;;;5.28;3.92;;;;;;;1.33;100.00;96390.53;1022301;29;20417;-65
2023/04/03 00:35:54;;;;;;;4.65;3.58;;;;;;;1.34;100.00;96394.72;1026274;28;20677;-64
2023/04/03 00:36:25;;;;;;;4.85;3.70;;;;;;;1.38;100.00;96395.16;1026256;28;20019;-70
2023/04/03 00:36:55;;;;;;;4.20;3.67;;;;;;;1.39;100.00;96391.56;1022063;29;20035;-66
2023/04/03 00:37:26;;;;;;;4.72;3.75;;;;;;;1.37;100.00;96398.69;1014271;29;20028;-65
2023/04/03 00:37:57;;;;;;;6.53;4.00;;;;;;;1.33;100.00;96392.31;1014483;29;20028;-66
2023/04/03 00:38:28;;;;;;;5.58;4.08;;;;;;;1.34;100.00;96394.72;1014681;29;20538;-66
2023/04/03 00:38:58;;;;;;;5.85;3.72;;;;;;;1.36;100.00;96389.34;1018584;29;20043;-66
2023/04/03 00:39:29;;;;;;;6.13;4.10;;;;;;;1.38;100.00;96393.34;1018185;29;20398;-67
2023/04/03 00:39:59;;;;;;;5.10;3.92;;;;;;;1.38;100.00;96389.97;1014316;29;20031;-69
2023/04/03 00:40:33;;;;;;;6.43;3.85;;;;;;;1.35;100.00;96393.72;1014545;29;20023;-64
2023/04/03 00:41:04;;;;;;;6.32;4.08;;;;;;;1.37;100.00;96389.16;1010749;29;20069;-65
2023/04/03 00:41:35;;;;;;;4.13;3.33;;;;;;;1.34;100.00;96389.56;1015604;29;20530;-68
2023/04/03 00:42:05;;;;;;;4.22;3.13;;;;;;;1.29;100.00;96391.09;1022277;29;20027;-65
2023/04/03 00:42:37;;;;;;;6.50;3.35;;;;;;;1.24;100.00;96373.56;1022127;29;20027;-67
2023/04/03 00:43:12;;;;;;;4.00;3.30;;;;;;;1.30;100.00;96392.69;1022225;29;20023;-64
2023/04/03 00:43:43;;;;;;;5.06;3.24;;;;;;;1.26;100.00;96386.28;1022196;29;20023;-67
2023/04/03 00:44:35;;;;;;;4.10;3.40;;;;;;;1.24;100.00;96393.44;1022106;29;20023;-65
2023/04/03 00:45:05;;;;;;;4.98;3.72;;;;;;;1.23;100.00;96391.84;1025697;28;20361;-66
2023/04/03 00:45:37;;;;;;;4.15;3.42;;;;;;;1.17;100.00;96383.88;1026432;28;20059;-67
2023/04/03 00:46:08;;;;;;;6.10;4.18;;;;;;;1.24;100.00;96394.25;1022085;29;20019;-65
2023/04/03 00:46:38;;;;;;;3.90;3.40;;;;;;;1.25;100.00;96389.88;1022278;29;20031;-69
2023/04/03 00:47:13;;;;;;;5.95;3.63;;;;;;;1.28;100.00;96389.50;1016703;29;20031;-69
2023/04/03 00:47:44;;;;;;;5.36;3.22;;;;;;;1.27;100.00;96388.69;1014780;29;20037;-67
2023/04/03 00:48:28;;;;;;;4.90;3.42;;;;;;;1.30;100.00;96393.47;1014424;29;20063;-67
2023/04/03 00:48:58;;;;;;;4.98;3.32;;;;;;;1.31;100.00;96389.94;1010548;29;20025;-66
2023/04/03 00:49:29;;;;;;;4.20;3.60;;;;;;;1.32;100.00;96393.31;1014600;29;20020;-69
2023/04/03 00:49:59;;;;;;;4.35;3.42;;;;;;;1.32;100.00;96390.72;1011238;29;20032;-69
2023/04/03 00:50:30;;;;;;;4.07;3.35;;;;;;;1.34;100.00;96396.47;1015066;29;20012;-67
2023/04/03 00:51:00;;;;;;;4.32;3.30;;;;;;;1.31;100.00;96389.94;1019019;29;20360;-65
2023/04/03 00:51:31;;;;;;;5.30;3.42;;;;;;;1.32;100.00;96385.56;1018605;29;20020;-67
2023/04/03 00:52:01;;;;;;;4.65;3.15;;;;;;;1.29;100.00;96388.50;1007169;29;20054;-67
2023/04/03 00:52:32;;;;;;;5.18;3.03;;;;;;;1.27;100.00;96374.97;1011255;29;20320;-66
2023/04/03 00:53:03;;;;;;;6.38;3.55;;;;;;;1.23;100.00;96381.50;1007017;29;20025;-67
2023/04/03 00:53:55;;;;;;;4.50;3.40;;;;;;;1.24;100.00;96391.66;1006975;29;20493;-66
2023/04/03 00:54:26;;;;;;;4.04;3.12;;;;;;;1.06;100.00;96366.25;1011154;29;20045;-67
2023/04/03 00:55:02;;;;;;;4.20;3.20;;;;;;;1.14;100.00;96383.41;1017100;29;20027;-66
2023/04/03 00:55:34;;;;;;;4.92;3.30;;;;;;;1.18;100.00;96387.25;1018315;29;20015;-68
2023/04/03 00:56:09;;;;;;;7.08;3.28;;;;;;;1.17;100.00;96389.03;1018181;29;20019;-68
2023/04/03 00:56:39;;;;;;;4.90;3.08;;;;;;;1.24;100.00;96393.44;1018573;29;20019;-65
2023/04/03 00:57:10;;;;;;;4.65;3.33;;;;;;;1.21;100.00;96386.03;1014268;29;20271;-66
2023/04/03 00:57:41;;;;;;;6.60;3.15;;;;;;;1.22;100.00;96390.25;1017454;29;20024;-64
2023/04/03 00:58:11;;;;;;;4.18;3.20;;;;;;;1.21;100.00;96391.22;1014553;29;20020;-67
2023/04/03 00:58:49;;;;;;;8.48;3.33;;;;;;;1.21;100.00;96386.03;1014578;29;20043;-67
2023/04/03 00:59:26;;;;;;;5.04;3.54;;;;;;;1.22;100.00;96382.50;1015544;29;20020;-69
2023/04/03 01:00:04;;;;;;;4.18;3.32;;;;;;;1.18;100.00;96393.22;1018311;29;20199;-68
2023/04/03 01:00:37;;;;;;;4.92;3.02;;;;;;;1.13;100.00;96377.44;1014440;29;20110;-66
2023/04/03 01:01:08;;;;;;;4.42;3.10;;;;;;;1.14;100.00;96379.06;1010298;29;20394;-70
2023/04/03 01:01:39;;;;;;;5.28;3.06;;;;;;;1.17;100.00;96383.03;1014147;29;20031;-65
2023/04/03 01:02:09;;;;;;;3.65;2.65;;;;;;;1.16;100.00;96377.06;1014555;29;20111;-61
2023/04/03 01:02:43;;;;;;;3.34;3.00;;;;;;;1.18;100.00;96388.03;1014408;29;20053;-64
2023/04/03 01:03:13;;;;;;;3.83;2.88;;;;;;;1.18;100.00;96388.03;1014095;29;20020;-69
2023/04/03 01:03:43;;;;;;;7.30;3.78;;;;;;;1.17;100.00;96381.28;1014668;29;20495;-65
2023/04/03 01:04:33;;;;;;;4.85;3.28;;;;;;;1.25;100.00;96388.09;1014311;29;20363;-66
2023/04/03 01:05:04;;;;;;;5.60;3.30;;;;;;;1.26;100.00;96381.13;1020995;29;20486;-64
2023/04/03 01:05:35;;;;;;;3.88;3.33;;;;;;;1.29;100.00;96375.59;1014378;29;20016;-65
2023/04/03 01:06:05;;;;;;;6.30;4.05;;;;;;;1.28;100.00;96381.75;1010349;29;20088;-69
2023/04/03 01:06:36;;;;;;;4.78;4.03;;;;;;;1.27;100.00;96377.53;1010289;29;20032;-65
2023/04/03 01:07:10;;;;;;;4.28;3.35;;;;;;;1.22;100.00;96385.06;1014261;29;20024;-67
2023/04/03 01:07:43;;;;;;;3.46;3.08;;;;;;;1.21;100.00;96379.13;1014653;29;20016;-67
2023/04/03 01:08:13;;;;;;;4.72;3.50;;;;;;;1.20;100.00;96381.88;1014191;29;20028;-66
2023/04/03 01:08:44;;;;;;;3.85;2.95;;;;;;;1.20;100.00;96380.09;1014735;29;20024;-65
2023/04/03 01:09:15;;;;;;;5.95;2.88;;;;;;;1.21;100.00;96376.53;1014704;29;20012;-66
2023/04/03 01:09:45;;;;;;;2.95;2.63;;;;;;;1.22;100.00;96385.06;1018212;29;20016;-65
2023/04/03 01:10:16;;;;;;;6.80;3.13;;;;;;;1.24;100.00;96383.09;1014282;29;20020;-64
2023/04/03 01:10:50;;;;;;;4.40;3.10;;;;;;;1.22;100.00;96383.28;1010479;29;20036;-67
2023/04/03 01:11:20;;;;;;;4.85;2.83;;;;;;;1.18;100.00;96375.13;1018079;29;20028;-69
2023/04/03 01:11:51;;;;;;;5.40;3.28;;;;;;;1.18;100.00;96380.28;1014585;29;20108;-65
2023/04/03 01:12:21;;;;;;;3.95;3.13;;;;;;;1.20;100.00;96387.03;1010825;29;20503;-64
2023/04/03 01:12:52;;;;;;;5.00;3.00;;;;;;;1.20;100.00;96376.69;1018424;29;20204;-67
2023/04/03 01:13:30;;;;;;;4.13;2.70;;;;;;;1.18;100.00;96380.28;1014008;29;20028;-66
2023/04/03 01:14:01;;;;;;;4.78;3.36;;;;;;;1.18;100.00;96382.06;1016798;29;20024;-67
2023/04/03 01:14:34;;;;;;;4.12;3.26;;;;;;;1.16;100.00;96377.06;1013491;29;20100;-66
2023/04/03 01:15:08;;;;;;;4.30;3.18;;;;;;;1.17;100.00;96383.88;1016928;29;20086;-67
2023/04/03 01:15:38;;;;;;;4.08;3.32;;;;;;;1.18;100.00;96380.28;1018082;29;20103;-67
2023/04/03 01:16:10;;;;;;;4.03;3.13;;;;;;;1.12;100.00;96373.28;1019011;29;20024;-64
2023/04/03 01:16:40;;;;;;;5.30;3.44;;;;;;;1.16;100.00;96371.13;1018060;29;20110;-65
2023/04/03 01:17:30;;;;;;;3.95;3.05;;;;;;;1.23;100.00;96386.66;1014484;29;20028;-67
2023/04/03 01:18:00;;;;;;;3.90;3.00;;;;;;;1.25;100.00;96384.72;1014383;29;20018;-66
2023/04/03 01:18:31;;;;;;;4.22;3.00;;;;;;;1.22;100.00;96382.50;1010304;29;20032;-67
2023/04/03 01:19:01;;;;;;;6.78;3.13;;;;;;;1.18;100.00;96390.63;1012890;29;20147;-64
2023/04/03 01:19:32;;;;;;;5.30;3.25;;;;;;;1.15;100.00;96382.44;1010445;29;20514;-69
2023/04/03 01:20:11;;;;;;;5.82;2.80;;;;;;;1.16;100.00;96382.25;1012194;29;20020;-69
2023/04/03 01:20:45;;;;;;;4.78;2.96;;;;;;;1.14;100.00;96380.81;1015458;29;20337;-67
2023/04/03 01:21:37;;;;;;;5.02;2.70;;;;;;;1.16;100.00;96382.25;1016106;29;20020;-64
2023/04/03 01:22:17;;;;;;;3.96;2.84;;;;;;;1.15;100.00;96385.81;1018281;29;20171;-67
2023/04/03 01:23:10;;;;;;;4.16;3.00;;;;;;;1.16;100.00;96387.41;1014479;29;20016;-66
2023/04/03 01:24:05;;;;;;;3.40;2.52;;;;;;;1.12;100.00;96386.19;1021720;29;20172;-66
2023/04/03 01:24:41;;;;;;;3.98;2.74;;;;;;;1.06;100.00;96374.00;1020448;29;20029;-65
2023/04/03 01:25:11;;;;;;;5.10;2.90;;;;;;;1.13;100.00;96382.63;1021913;29;20023;-65
2023/04/03 01:25:52;;;;;;;3.60;2.70;;;;;;;1.11;100.00;96382.03;1022203;29;20023;-65
2023/04/03 01:26:23;;;;;;;3.62;2.82;;;;;;;1.13;100.00;96384.41;1016525;29;20386;-67
2023/04/03 01:26:53;;;;;;;3.90;2.65;;;;;;;1.13;100.00;96382.63;1008253;29;20144;-65
2023/04/03 01:27:24;;;;;;;5.72;3.15;;;;;;;1.15;100.00;96385.03;1010266;29;20025;-65
2023/04/03 01:27:55;;;;;;;4.53;3.30;;;;;;;1.17;100.00;96377.88;1018110;29;20152;-66
2023/04/03 01:28:31;;;;;;;3.20;2.83;;;;;;;1.16;100.00;96379.66;1018218;29;20047;-67
2023/04/03 01:29:01;;;;;;;4.10;2.50;;;;;;;1.14;100.00;96375.66;1019741;29;20265;-66
2023/04/03 01:29:32;;;;;;;2.80;2.28;;;;;;;1.14;100.00;96376.47;1015070;29;20038;-66
2023/04/03 01:30:02;;;;;;;7.70;2.90;;;;;;;1.05;100.00;96377.59;1014429;29;20096;-69
2023/04/03 01:30:36;;;;;;;4.00;2.75;;;;;;;1.06;100.00;96381.75;1010353;29;20111;-67
2023/04/03 01:31:19;;;;;;;3.04;2.22;;;;;;;1.07;100.00;96382.56;1014209;29;20032;-68
2023/04/03 01:31:51;;;;;;;2.96;2.10;;;;;;;1.04;100.00;96382.94;1018599;29;20560;-65
2023/04/03 01:32:22;;;;;;;4.60;2.44;;;;;;;1.05;100.00;96381.97;1022257;28;20517;-66
2023/04/03 01:32:55;;;;;;;2.52;2.30;;;;;;;1.02;100.00;96374.59;1025145;28;20494;-65
2023/04/03 01:33:25;;;;;;;5.72;2.75;;;;;;;1.05;100.00;96380.19;1023318;29;20031;-67
2023/04/03 01:33:56;;;;;;;3.85;2.65;;;;;;;1.08;100.00;96379.00;1022739;29;20016;-66
2023/04/03 01:34:27;;;;;;;3.53;2.53;;;;;;;1.07;100.00;96379.97;1022499;29;20016;-66
2023/04/03 01:34:57;;;;;;;3.63;2.47;;;;;;;1.09;100.00;96376.22;1019122;29;20027;-66
2023/04/03 01:35:28;;;;;;;4.20;2.75;;;;;;;1.10;100.00;96382.19;1018937;29;20437;-65
2023/04/03 01:35:58;;;;;;;4.43;2.60;;;;;;;1.08;100.00;96376.44;1007350;29;20085;-68
2023/04/03 01:36:30;;;;;;;2.67;2.25;;;;;;;1.09;100.00;96381.41;1007386;29;20025;-66
2023/04/03 01:37:00;;;;;;;4.56;2.56;;;;;;;1.08;100.00;96384.97;1007394;29;20029;-66
2023/04/03 01:37:30;;;;;;;4.43;2.78;;;;;;;1.08;100.00;96384.19;1011254;29;20364;-66
2023/04/03 01:38:01;;;;;;;3.35;2.45;;;;;;;1.08;100.00;96374.63;1007696;29;20025;-66
2023/04/03 01:38:31;;;;;;;4.18;3.00;;;;;;;1.10;100.00;96382.19;1011409;29;20236;-67
2023/04/03 01:39:02;;;;;;;3.67;2.50;;;;;;;1.08;100.00;96384.97;1019149;29;20024;-65
2023/04/03 01:39:32;;;;;;;2.95;2.30;;;;;;;1.09;100.00;96380.59;1015136;29;20264;-69
2023/04/03 01:40:03;;;;;;;3.33;2.50;;;;;;;1.08;100.00;96379.81;1019203;29;20479;-64
2023/04/03 01:40:34;;;;;;;2.88;2.50;;;;;;;1.11;100.00;96376.84;1023051;29;20381;-66
2023/04/03 01:41:04;;;;;;;4.82;3.22;;;;;;;1.13;100.00;96380.03;1022988;28;20401;-69
2023/04/03 01:41:35;;;;;;;3.25;2.72;;;;;;;1.11;100.00;96383.81;1022917;29;20019;-66
2023/04/03 01:42:06;;;;;;;3.30;2.60;;;;;;;1.10;100.00;96379.59;1018966;29;20039;-67
2023/04/03 01:42:36;;;;;;;2.58;2.20;;;;;;;1.08;100.00;96373.84;1020224;29;20027;-65
2023/04/03 01:43:07;;;;;;;4.03;2.20;;;;;;;1.14;100.00;96380.81;1019113;29;20024;-66
2023/04/03 01:43:37;;;;;;;5.57;2.95;;;;;;;1.15;100.00;96385.03;1015157;29;20024;-66
2023/04/03 01:44:11;;;;;;;4.26;2.58;;;;;;;1.18;100.00;96382.88;1018931;29;20034;-68
2023/04/03 01:44:41;;;;;;;2.95;2.63;;;;;;;1.16;100.00;96390.00;1014509;29;20055;-65
2023/04/03 01:45:11;;;;;;;4.70;2.70;;;;;;;1.15;100.00;96379.84;1019463;29;20043;-67
2023/04/03 01:45:42;;;;;;;7.00;2.80;;;;;;;1.09;100.00;96386.56;1022920;29;20031;-67
2023/04/03 01:46:13;;;;;;;2.90;2.47;;;;;;;1.09;100.00;96381.41;1015006;29;20498;-66
2023/04/03 01:46:43;;;;;;;3.70;2.65;;;;;;;1.11;100.00;96384.59;1018908;29;20023;-66
2023/04/03 01:47:14;;;;;;;3.92;2.67;;;;;;;1.08;100.00;96379.81;1009754;29;20048;-64
2023/04/03 01:47:45;;;;;;;3.08;2.60;;;;;;;1.12;100.00;96383.63;1010650;29;20092;-68
2023/04/03 01:48:16;;;;;;;4.50;2.72;;;;;;;1.12;100.00;96385.41;1011389;29;20080;-70
2023/04/03 01:48:46;;;;;;;3.82;2.94;;;;;;;1.08;100.00;96384.19;1011404;29;20040;-66
2023/04/03 01:49:17;;;;;;;3.38;2.80;;;;;;;1.09;100.00;96386.56;1015305;29;20023;-67
2023/04/03 01:49:47;;;;;;;2.97;2.40;;;;;;;1.07;100.00;96378.19;1018856;29;20023;-67
2023/04/03 01:50:18;;;;;;;3.30;2.65;;;;;;;1.10;100.00;96380.41;1015000;29;20079;-69
2023/04/03 01:50:48;;;;;;;3.22;2.55;;;;;;;1.14;100.00;96389.41;1015158;29;20024;-67
2023/04/03 01:51:18;;;;;;;3.72;2.70;;;;;;;1.13;100.00;96387.00;1022046;29;20019;-63
2023/04/03 01:51:49;;;;;;;4.40;3.03;;;;;;;1.10;100.00;96383.00;1022954;28;20086;-67
2023/04/03 01:52:19;;;;;;;3.13;2.53;;;;;;;1.14;100.00;96389.41;1022949;29;20027;-64
2023/04/03 01:52:50;;;;;;;3.33;2.50;;;;;;;1.07;100.00;96375.59;1021038;29;20031;-65
2023/04/03 01:53:21;;;;;;;3.35;2.60;;;;;;;1.06;100.00;96384.34;1014897;29;20029;-67
2023/04/03 01:53:51;;;;;;;3.35;2.67;;;;;;;1.06;100.00;96381.75;1014965;29;20024;-67
2023/04/03 01:54:21;;;;;;;3.17;2.67;;;;;;;1.03;100.00;96387.31;1027509;23;20044;-71
2023/04/03 01:54:52;;;;;;;2.80;2.25;;;;;;;0.98;100.00;96379.31;1022508;28;20055;-70
2023/04/03 01:55:22;;;;;;;3.28;2.40;;;;;;;0.98;100.00;96376.75;1019441;29;20020;-69
2023/04/03 01:55:53;;;;;;;2.95;2.50;;;;;;;0.99;100.00;96380.91;1023311;28;20028;-69
2023/04/03 01:56:23;;;;;;;4.07;2.70;;;;;;;1.05;100.00;96380.19;1023158;29;20441;-69
2023/04/03 01:56:54;;;;;;;2.78;2.13;;;;;;;1.03;100.00;96378.75;1023169;28;20027;-69
2023/04/03 01:57:25;;;;;;;4.43;2.65;;;;;;;0.99;100.00;96369.78;1023298;29;20027;-69
2023/04/03 01:57:55;;;;;;;5.25;2.92;;;;;;;1.02;100.00;96380.53;1015559;29;20480;-69
2023/04/03 01:58:26;;;;;;;3.53;2.47;;;;;;;0.96;100.00;96367.56;1023105;29;20139;-69
2023/04/03 01:58:56;;;;;;;3.88;2.72;;;;;;;1.03;100.00;96389.88;1027509;28;20033;-69
2023/04/03 01:59:27;;;;;;;4.03;2.80;;;;;;;1.03;100.00;96382.13;1026839;28;20027;-69
2023/04/03 01:59:58;;;;;;;4.07;2.50;;;;;;;1.01;100.00;96378.97;1027103;28;20037;-69
2023/04/03 02:00:28;;;;;;;6.22;2.63;;;;;;;1.00;100.00;96382.50;1027816;28;20261;-69
2023/04/03 02:00:59;;;;;;;2.92;2.30;;;;;;;1.03;100.00;96382.13;1027367;28;20019;-69
2023/04/03 02:01:29;;;;;;;2.55;2.15;;;;;;;1.03;100.00;96387.31;1029911;28;20109;-70
2023/04/03 02:02:00;;;;;;;4.22;2.78;;;;;;;0.99;100.00;96380.91;1031406;28;20029;-69
2023/04/03 02:02:30;;;;;;;4.80;2.63;;;;;;;1.00;100.00;96381.72;1027144;28;20035;-69
2023/04/03 02:03:01;;;;;;;3.95;2.78;;;;;;;1.02;100.00;96380.53;1024292;28;20026;-69
2023/04/03 02:03:31;;;;;;;3.63;2.90;;;;;;;1.04;100.00;96388.09;1015240;29;20028;-71
2023/04/03 02:04:02;;;;;;;3.28;2.55;;;;;;;1.03;100.00;96376.97;1019411;29;20072;-69
2023/04/03 02:04:32;;;;;;;5.22;2.50;;;;;;;1.03;100.00;96387.31;1019383;28;20023;-69
2023/04/03 02:05:03;;;;;;;6.25;3.10;;;;;;;1.04;100.00;96370.84;1019252;28;20443;-69
2023/04/03 02:05:34;;;;;;;3.03;2.50;;;;;;;1.04;100.00;96385.50;1023194;29;20020;-69
2023/04/03 02:06:05;;;;;;;4.06;2.86;;;;;;;1.04;100.00;96376.00;1011724;29;20060;-69
2023/04/03 02:06:35;;;;;;;3.02;2.52;;;;;;;1.08;100.00;96379.81;1011039;29;20021;-69
2023/04/03 02:07:06;;;;;;;4.45;2.92;;;;;;;1.09;100.00;96390.94;1011803;29;20021;-71
2023/04/03 02:07:36;;;;;;;3.90;2.50;;;;;;;1.05;100.00;96377.59;1019256;29;20055;-69
2023/04/03 02:08:07;;;;;;;6.95;2.72;;;;;;;0.97;100.00;96369.97;1019148;29;20042;-69
2023/04/03 02:08:37;;;;;;;5.18;2.97;;;;;;;0.97;100.00;96364.78;1019528;29;20027;-69
2023/04/03 02:09:08;;;;;;;4.13;2.95;;;;;;;0.79;100.00;96344.59;1015417;29;20016;-69
2023/04/03 02:09:38;;;;;;;3.58;2.47;;;;;;;1.01;100.00;96381.53;1011486;29;20036;-69
2023/04/03 02:10:09;;;;;;;3.75;2.90;;;;;;;1.05;100.00;96375.00;1015788;29;20043;-69
2023/04/03 02:10:40;;;;;;;4.58;2.70;;;;;;;1.02;100.00;96382.34;1023194;28;20139;-69
2023/04/03 02:11:10;;;;;;;3.13;2.47;;;;;;;0.89;100.00;96362.34;1027494;28;20128;-71
2023/04/03 02:11:41;;;;;;;4.28;2.75;;;;;;;1.01;100.00;96378.97;1023421;28;20031;-69
2023/04/03 02:12:11;;;;;;;3.38;2.65;;;;;;;1.00;100.00;96377.34;1023181;29;20148;-70
2023/04/03 02:12:45;;;;;;;4.65;2.95;;;;;;;1.01;100.00;96378.97;1015544;29;20016;-69
2023/04/03 02:13:16;;;;;;;4.32;2.62;;;;;;;1.03;100.00;96376.19;1016038;29;20482;-69
2023/04/03 02:13:46;;;;;;;4.56;2.82;;;;;;;1.05;100.00;96375.00;1015646;29;20050;-69
2023/04/03 02:14:17;;;;;;;3.58;2.83;;;;;;;1.03;100.00;96376.97;1020548;28;20028;-70
2023/04/03 02:14:47;;;;;;;4.45;2.75;;;;;;;1.03;100.00;96382.13;1026617;28;20027;-69
2023/04/03 02:15:18;;;;;;;3.90;2.40;;;;;;;1.00;100.00;96374.75;1023654;28;20437;-70
2023/04/03 02:15:48;;;;;;;4.60;2.40;;;;;;;0.93;100.00;96369.53;1023146;29;20020;-69
2023/04/03 02:16:21;;;;;;;4.38;2.90;;;;;;;1.01;100.00;96378.97;1023160;29;20560;-69
2023/04/03 02:16:52;;;;;;;2.30;1.96;;;;;;;1.03;100.00;96381.34;1015922;29;20492;-71
2023/04/03 02:17:22;;;;;;;5.38;2.67;;;;;;;1.04;100.00;96378.59;1021247;28;20024;-69
2023/04/03 02:17:53;;;;;;;5.13;3.15;;;;;;;1.02;100.00;96375.38;1024356;28;20023;-70
2023/04/03 02:18:23;;;;;;;4.10;2.40;;;;;;;1.02;100.00;96374.59;1024069;28;20346;-69
2023/04/03 02:18:54;;;;;;;4.30;3.05;;;;;;;1.04;100.00;96376.00;1027998;28;20019;-69
2023/04/03 02:19:24;;;;;;;3.50;2.67;;;;;;;1.04;100.00;96376.00;1028284;28;20114;-70
2023/04/03 02:19:55;;;;;;;3.33;2.45;;;;;;;1.06;100.00;96380.97;1030639;28;20019;-70
2023/04/03 02:20:26;;;;;;;4.28;2.90;;;;;;;1.08;100.00;96379.00;1031227;28;20484;-69
2023/04/03 02:20:56;;;;;;;5.30;2.53;;;;;;;1.09;100.00;96383.97;1027322;28;20046;-70
2023/04/03 02:21:27;;;;;;;3.38;2.58;;;;;;;1.08;100.00;96384.97;1027414;28;20042;-70
2023/04/03 02:21:58;;;;;;;4.94;2.18;;;;;;;1.09;100.00;96380.59;1031783;28;20451;-69
2023/04/03 02:22:28;;;;;;;3.28;2.30;;;;;;;1.10;100.00;96379.59;1028004;28;20039;-69
2023/04/03 02:22:59;;;;;;;3.75;2.70;;;;;;;1.11;100.00;96378.63;1030696;28;20030;-69
2023/04/03 02:23:29;;;;;;;6.20;2.33;;;;;;;1.08;100.00;96379.81;1027782;28;20023;-69
2023/04/03 02:24:00;;;;;;;5.18;2.47;;;;;;;1.06;100.00;96376.59;1027846;28;20547;-71
2023/04/03 02:24:31;;;;;;;3.40;2.40;;;;;;;1.07;100.00;96387.72;1027051;28;20522;-69
2023/04/03 02:25:01;;;;;;;4.50;2.63;;;;;;;1.09;100.00;96378.81;1027388;28;20019;-69
2023/04/03 02:25:32;;;;;;;3.45;2.22;;;;;;;1.04;100.00;96376.00;1027468;28;20158;-69
2023/04/03 02:26:07;;;;;;;3.65;2.67;;;;;;;1.05;100.00;96375.00;1019474;29;20766;-69
2023/04/03 02:26:37;;;;;;;3.72;2.16;;;;;;;1.02;100.00;96375.38;1019592;29;20031;-71
2023/04/03 02:27:08;;;;;;;4.35;2.50;;;;;;;0.98;100.00;96363.03;1019423;29;20450;-70
2023/04/03 02:27:38;;;;;;;4.53;2.42;;;;;;;1.05;100.00;96380.19;1016124;29;20016;-69
2023/04/03 02:28:09;;;;;;;3.67;2.80;;;;;;;1.05;100.00;96379.38;1015744;29;20130;-69
2023/04/03 02:28:40;;;;;;;3.75;2.72;;;;;;;1.06;100.00;96371.44;1016936;29;20395;-69
2023/04/03 02:29:11;;;;;;;3.06;2.28;;;;;;;1.07;100.00;96378.19;1026797;28;20031;-70